sensor_id;sensor_type;location;lat;lon;timestamp;temperature;humidity
30534;DHT22;17318;52.390;9.754;2023-02-22T00:00:18;11.80;99.90
30534;DHT22;17318;52.390;9.754;2023-02-22T00:02:45;11.70;99.90
30534;DHT22;17318;52.390;9.754;2023-02-22T00:05:11;11.80;99.90
30534;DHT22;17318;52.390;9.754;2023-02-22T00:07:40;11.70;99.90
30534;DHT22;17318;52.390;9.754;2023-02-22T00:10:06;11.70;99.90
30534;DHT22;17318;52.390;9.754;2023-02-22T00:12:41;11.70;99.90
30534;DHT22;17318;52.390;9.754;2023-02-22T00:15:08;11.70;99.90
30534;DHT22;17318;52.390;9.754;2023-02-22T00:17:34;11.70;99.90
30534;DHT22;17318;52.390;9.754;2023-02-22T00:20:00;11.70;99.90
30534;DHT22;17318;52.390;9.754;2023-02-22T00:22:26;11.70;99.90
30534;DHT22;17318;52.390;9.754;2023-02-22T00:24:52;11.70;99.90
30534;DHT22;17318;52.390;9.754;2023-02-22T00:27:17;11.70;99.90
30534;DHT22;17318;52.390;9.754;2023-02-22T00:29:44;11.60;99.90
30534;DHT22;17318;52.390;9.754;2023-02-22T00:32:11;11.50;99.90
30534;DHT22;17318;52.390;9.754;2023-02-22T00:34:36;11.50;99.90
30534;DHT22;17318;52.390;9.754;2023-02-22T00:37:02;11.50;99.90
30534;DHT22;17318;52.390;9.754;2023-02-22T00:39:29;11.40;99.90
30534;DHT22;17318;52.390;9.754;2023-02-22T00:41:55;11.40;99.90
30534;DHT22;17318;52.390;9.754;2023-02-22T00:44:21;11.50;99.90
30534;DHT22;17318;52.390;9.754;2023-02-22T00:46:47;11.50;99.90
30534;DHT22;17318;52.390;9.754;2023-02-22T00:49:14;11.60;99.90
30534;DHT22;17318;52.390;9.754;2023-02-22T00:51:40;11.60;99.90
30534;DHT22;17318;52.390;9.754;2023-02-22T00:54:06;11.50;99.90
30534;DHT22;17318;52.390;9.754;2023-02-22T00:56:33;11.70;99.90
30534;DHT22;17318;52.390;9.754;2023-02-22T00:58:59;11.50;99.90
30534;DHT22;17318;52.390;9.754;2023-02-22T01:01:26;11.50;99.90
30534;DHT22;17318;52.390;9.754;2023-02-22T01:03:52;11.50;99.90
30534;DHT22;17318;52.390;9.754;2023-02-22T01:06:18;11.50;99.90
30534;DHT22;17318;52.390;9.754;2023-02-22T01:08:45;11.50;99.90
30534;DHT22;17318;52.390;9.754;2023-02-22T01:11:11;11.40;99.90
30534;DHT22;17318;52.390;9.754;2023-02-22T01:13:37;11.40;99.90
30534;DHT22;17318;52.390;9.754;2023-02-22T01:16:04;11.30;99.90
30534;DHT22;17318;52.390;9.754;2023-02-22T01:18:36;11.30;99.90
30534;DHT22;17318;52.390;9.754;2023-02-22T01:21:05;11.30;99.90
30534;DHT22;17318;52.390;9.754;2023-02-22T01:23:31;11.20;99.90
30534;DHT22;17318;52.390;9.754;2023-02-22T01:25:57;11.20;99.90
30534;DHT22;17318;52.390;9.754;2023-02-22T01:28:22;11.10;99.90
30534;DHT22;17318;52.390;9.754;2023-02-22T01:30:48;11.10;99.90
30534;DHT22;17318;52.390;9.754;2023-02-22T01:33:14;11.10;99.90
30534;DHT22;17318;52.390;9.754;2023-02-22T01:35:41;11.00;99.90
30534;DHT22;17318;52.390;9.754;2023-02-22T01:38:09;11.00;99.90
30534;DHT22;17318;52.390;9.754;2023-02-22T01:40:37;10.90;99.90
30534;DHT22;17318;52.390;9.754;2023-02-22T01:46:00;10.70;99.90
30534;DHT22;17318;52.390;9.754;2023-02-22T01:48:28;10.60;99.90
30534;DHT22;17318;52.390;9.754;2023-02-22T01:51:10;10.60;99.90
30534;DHT22;17318;52.390;9.754;2023-02-22T01:56:40;10.40;99.90
30534;DHT22;17318;52.390;9.754;2023-02-22T01:59:11;10.40;99.90
30534;DHT22;17318;52.390;9.754;2023-02-22T02:01:38;10.40;99.90
30534;DHT22;17318;52.390;9.754;2023-02-22T02:04:21;10.30;99.90
30534;DHT22;17318;52.390;9.754;2023-02-22T02:06:51;10.30;99.90
30534;DHT22;17318;52.390;9.754;2023-02-22T02:09:56;10.30;99.90
30534;DHT22;17318;52.390;9.754;2023-02-22T02:12:22;10.20;99.90
30534;DHT22;17318;52.390;9.754;2023-02-22T02:14:48;10.00;99.90
30534;DHT22;17318;52.390;9.754;2023-02-22T02:17:16;9.90;99.90
30534;DHT22;17318;52.390;9.754;2023-02-22T02:20:08;9.90;99.90
30534;DHT22;17318;52.390;9.754;2023-02-22T02:28:50;9.70;99.90
30534;DHT22;17318;52.390;9.754;2023-02-22T02:34:11;9.50;99.90
30534;DHT22;17318;52.390;9.754;2023-02-22T02:36:47;9.40;99.90
30534;DHT22;17318;52.390;9.754;2023-02-22T02:39:25;9.40;99.90
30534;DHT22;17318;52.390;9.754;2023-02-22T02:41:51;9.50;99.90
30534;DHT22;17318;52.390;9.754;2023-02-22T02:47:31;9.40;99.90
30534;DHT22;17318;52.390;9.754;2023-02-22T02:50:15;9.30;99.90
30534;DHT22;17318;52.390;9.754;2023-02-22T02:52:44;9.20;99.90
30534;DHT22;17318;52.390;9.754;2023-02-22T02:55:11;9.20;99.90
30534;DHT22;17318;52.390;9.754;2023-02-22T02:57:37;9.20;99.90
30534;DHT22;17318;52.390;9.754;2023-02-22T03:00:05;9.10;99.90
30534;DHT22;17318;52.390;9.754;2023-02-22T03:03:10;9.10;99.90
30534;DHT22;17318;52.390;9.754;2023-02-22T03:08:58;9.10;99.90
30534;DHT22;17318;52.390;9.754;2023-02-22T03:11:53;9.00;99.90
30534;DHT22;17318;52.390;9.754;2023-02-22T03:14:19;9.00;99.90
30534;DHT22;17318;52.390;9.754;2023-02-22T03:19:39;8.80;99.90
30534;DHT22;17318;52.390;9.754;2023-02-22T03:22:11;8.80;99.90
30534;DHT22;17318;52.390;9.754;2023-02-22T03:27:36;8.70;99.90
30534;DHT22;17318;52.390;9.754;2023-02-22T03:30:10;8.70;99.90
30534;DHT22;17318;52.390;9.754;2023-02-22T03:32:39;8.80;99.90
30534;DHT22;17318;52.390;9.754;2023-02-22T03:35:13;8.80;99.90
30534;DHT22;17318;52.390;9.754;2023-02-22T03:37:44;8.70;99.90
30534;DHT22;17318;52.390;9.754;2023-02-22T03:40:14;8.60;99.90
30534;DHT22;17318;52.390;9.754;2023-02-22T03:42:47;8.60;99.90
30534;DHT22;17318;52.390;9.754;2023-02-22T03:45:17;8.60;99.90
30534;DHT22;17318;52.390;9.754;2023-02-22T03:47:48;8.50;99.90
30534;DHT22;17318;52.390;9.754;2023-02-22T03:50:19;8.50;99.90
30534;DHT22;17318;52.390;9.754;2023-02-22T03:52:46;8.50;99.90
30534;DHT22;17318;52.390;9.754;2023-02-22T03:55:13;8.40;99.90
30534;DHT22;17318;52.390;9.754;2023-02-22T03:57:48;8.40;99.90
30534;DHT22;17318;52.390;9.754;2023-02-22T04:00:19;8.40;99.90
30534;DHT22;17318;52.390;9.754;2023-02-22T04:02:45;8.40;99.90
30534;DHT22;17318;52.390;9.754;2023-02-22T04:05:10;8.40;99.90
30534;DHT22;17318;52.390;9.754;2023-02-22T04:07:41;8.30;99.90
30534;DHT22;17318;52.390;9.754;2023-02-22T04:10:07;8.30;99.90
30534;DHT22;17318;52.390;9.754;2023-02-22T04:12:34;8.40;99.90
30534;DHT22;17318;52.390;9.754;2023-02-22T04:15:00;8.30;99.90
30534;DHT22;17318;52.390;9.754;2023-02-22T04:17:26;8.30;99.90
30534;DHT22;17318;52.390;9.754;2023-02-22T04:19:52;8.30;99.90
30534;DHT22;17318;52.390;9.754;2023-02-22T04:22:18;8.30;99.90
30534;DHT22;17318;52.390;9.754;2023-02-22T04:24:44;8.20;99.90
30534;DHT22;17318;52.390;9.754;2023-02-22T04:27:10;8.30;99.90
30534;DHT22;17318;52.390;9.754;2023-02-22T04:29:35;8.20;99.90
30534;DHT22;17318;52.390;9.754;2023-02-22T04:32:01;8.20;99.90
30534;DHT22;17318;52.390;9.754;2023-02-22T04:34:27;8.30;99.90
30534;DHT22;17318;52.390;9.754;2023-02-22T04:36:52;8.20;99.90
30534;DHT22;17318;52.390;9.754;2023-02-22T04:39:18;8.20;99.90
30534;DHT22;17318;52.390;9.754;2023-02-22T04:41:43;8.10;99.90
30534;DHT22;17318;52.390;9.754;2023-02-22T04:44:09;8.10;99.90
30534;DHT22;17318;52.390;9.754;2023-02-22T04:46:35;8.00;99.90
30534;DHT22;17318;52.390;9.754;2023-02-22T04:49:00;8.10;99.90
30534;DHT22;17318;52.390;9.754;2023-02-22T04:51:26;8.10;99.90
30534;DHT22;17318;52.390;9.754;2023-02-22T04:53:51;8.10;99.90
30534;DHT22;17318;52.390;9.754;2023-02-22T04:56:18;8.30;99.90
30534;DHT22;17318;52.390;9.754;2023-02-22T04:58:44;8.20;99.90
30534;DHT22;17318;52.390;9.754;2023-02-22T05:01:09;8.40;99.90
30534;DHT22;17318;52.390;9.754;2023-02-22T05:03:38;8.50;99.90
30534;DHT22;17318;52.390;9.754;2023-02-22T05:06:05;8.50;99.90
30534;DHT22;17318;52.390;9.754;2023-02-22T05:08:30;8.50;99.90
30534;DHT22;17318;52.390;9.754;2023-02-22T05:10:56;8.50;99.90
30534;DHT22;17318;52.390;9.754;2023-02-22T05:13:22;8.50;99.90
30534;DHT22;17318;52.390;9.754;2023-02-22T05:15:47;8.60;99.90
30534;DHT22;17318;52.390;9.754;2023-02-22T05:18:14;8.60;99.90
30534;DHT22;17318;52.390;9.754;2023-02-22T05:20:39;8.60;99.90
30534;DHT22;17318;52.390;9.754;2023-02-22T05:23:05;8.60;99.90
30534;DHT22;17318;52.390;9.754;2023-02-22T05:25:31;8.60;99.90
30534;DHT22;17318;52.390;9.754;2023-02-22T05:28:00;8.70;99.90
30534;DHT22;17318;52.390;9.754;2023-02-22T05:30:32;8.80;99.90
30534;DHT22;17318;52.390;9.754;2023-02-22T05:32:58;8.80;99.90
30534;DHT22;17318;52.390;9.754;2023-02-22T05:35:24;8.70;99.90
30534;DHT22;17318;52.390;9.754;2023-02-22T05:37:51;8.70;99.90
30534;DHT22;17318;52.390;9.754;2023-02-22T05:40:19;8.80;99.90
30534;DHT22;17318;52.390;9.754;2023-02-22T05:42:45;8.70;99.90
30534;DHT22;17318;52.390;9.754;2023-02-22T05:45:12;8.50;99.90
30534;DHT22;17318;52.390;9.754;2023-02-22T05:47:38;8.60;99.90
30534;DHT22;17318;52.390;9.754;2023-02-22T05:50:05;8.60;99.90
30534;DHT22;17318;52.390;9.754;2023-02-22T05:52:31;8.30;99.90
30534;DHT22;17318;52.390;9.754;2023-02-22T05:54:56;8.50;99.90
30534;DHT22;17318;52.390;9.754;2023-02-22T05:57:22;8.50;99.90
30534;DHT22;17318;52.390;9.754;2023-02-22T05:59:48;8.50;99.90
30534;DHT22;17318;52.390;9.754;2023-02-22T06:02:13;8.50;99.90
30534;DHT22;17318;52.390;9.754;2023-02-22T06:04:39;8.50;99.90
30534;DHT22;17318;52.390;9.754;2023-02-22T06:07:08;8.50;99.90
30534;DHT22;17318;52.390;9.754;2023-02-22T06:09:33;8.50;99.90
30534;DHT22;17318;52.390;9.754;2023-02-22T06:11:59;8.50;99.90
30534;DHT22;17318;52.390;9.754;2023-02-22T06:14:25;8.50;99.90
30534;DHT22;17318;52.390;9.754;2023-02-22T06:16:54;8.50;99.90
30534;DHT22;17318;52.390;9.754;2023-02-22T06:19:20;8.40;99.90
30534;DHT22;17318;52.390;9.754;2023-02-22T06:21:55;8.40;99.90
30534;DHT22;17318;52.390;9.754;2023-02-22T06:24:21;8.50;99.90
30534;DHT22;17318;52.390;9.754;2023-02-22T06:26:55;8.40;99.90
30534;DHT22;17318;52.390;9.754;2023-02-22T06:29:22;8.50;99.90
30534;DHT22;17318;52.390;9.754;2023-02-22T06:31:48;8.50;99.90
30534;DHT22;17318;52.390;9.754;2023-02-22T06:34:14;8.40;99.90
30534;DHT22;17318;52.390;9.754;2023-02-22T06:36:40;8.50;99.90
30534;DHT22;17318;52.390;9.754;2023-02-22T06:39:07;8.50;99.90
30534;DHT22;17318;52.390;9.754;2023-02-22T06:41:39;8.50;99.90
30534;DHT22;17318;52.390;9.754;2023-02-22T06:44:05;8.50;99.90
30534;DHT22;17318;52.390;9.754;2023-02-22T06:46:31;8.60;99.90
30534;DHT22;17318;52.390;9.754;2023-02-22T06:48:56;8.60;99.90
30534;DHT22;17318;52.390;9.754;2023-02-22T06:51:25;8.70;99.90
30534;DHT22;17318;52.390;9.754;2023-02-22T06:53:51;8.70;99.90
30534;DHT22;17318;52.390;9.754;2023-02-22T06:56:17;8.70;99.90
30534;DHT22;17318;52.390;9.754;2023-02-22T06:58:42;8.80;99.90
30534;DHT22;17318;52.390;9.754;2023-02-22T07:01:08;8.80;99.90
30534;DHT22;17318;52.390;9.754;2023-02-22T07:03:34;8.90;99.90
30534;DHT22;17318;52.390;9.754;2023-02-22T07:06:00;8.90;99.90
30534;DHT22;17318;52.390;9.754;2023-02-22T07:08:27;9.00;99.90
30534;DHT22;17318;52.390;9.754;2023-02-22T07:10:53;9.00;99.90
30534;DHT22;17318;52.390;9.754;2023-02-22T07:13:19;9.10;99.90
30534;DHT22;17318;52.390;9.754;2023-02-22T07:15:44;9.10;99.90
30534;DHT22;17318;52.390;9.754;2023-02-22T07:18:10;9.10;99.90
30534;DHT22;17318;52.390;9.754;2023-02-22T07:20:36;9.10;99.90
30534;DHT22;17318;52.390;9.754;2023-02-22T07:23:03;9.20;99.90
30534;DHT22;17318;52.390;9.754;2023-02-22T07:25:29;9.40;99.90
30534;DHT22;17318;52.390;9.754;2023-02-22T07:27:54;9.50;99.90
30534;DHT22;17318;52.390;9.754;2023-02-22T07:30:26;9.50;99.90
30534;DHT22;17318;52.390;9.754;2023-02-22T07:32:56;9.60;99.90
30534;DHT22;17318;52.390;9.754;2023-02-22T07:35:33;9.50;99.90
30534;DHT22;17318;52.390;9.754;2023-02-22T07:38:06;9.60;99.90
30534;DHT22;17318;52.390;9.754;2023-02-22T07:40:33;9.60;99.90
30534;DHT22;17318;52.390;9.754;2023-02-22T07:43:20;9.70;99.90
30534;DHT22;17318;52.390;9.754;2023-02-22T07:45:46;9.60;99.90
30534;DHT22;17318;52.390;9.754;2023-02-22T07:48:14;9.60;99.90
30534;DHT22;17318;52.390;9.754;2023-02-22T07:50:40;9.80;99.90
30534;DHT22;17318;52.390;9.754;2023-02-22T07:53:09;9.90;99.90
30534;DHT22;17318;52.390;9.754;2023-02-22T07:55:36;10.00;99.90
30534;DHT22;17318;52.390;9.754;2023-02-22T07:58:04;10.00;99.90
30534;DHT22;17318;52.390;9.754;2023-02-22T08:00:37;10.10;99.90
30534;DHT22;17318;52.390;9.754;2023-02-22T08:03:06;10.20;99.90
30534;DHT22;17318;52.390;9.754;2023-02-22T08:05:33;10.30;99.90
30534;DHT22;17318;52.390;9.754;2023-02-22T08:07:59;10.40;99.90
30534;DHT22;17318;52.390;9.754;2023-02-22T08:10:25;10.40;99.90
30534;DHT22;17318;52.390;9.754;2023-02-22T08:12:52;10.70;99.90
30534;DHT22;17318;52.390;9.754;2023-02-22T08:15:22;10.60;99.90
30534;DHT22;17318;52.390;9.754;2023-02-22T08:17:49;10.70;99.90
30534;DHT22;17318;52.390;9.754;2023-02-22T08:20:14;10.90;99.90
30534;DHT22;17318;52.390;9.754;2023-02-22T08:22:44;11.00;99.90
30534;DHT22;17318;52.390;9.754;2023-02-22T08:25:12;11.10;99.90
30534;DHT22;17318;52.390;9.754;2023-02-22T08:27:38;11.10;99.90
30534;DHT22;17318;52.390;9.754;2023-02-22T08:30:04;11.20;99.90
30534;DHT22;17318;52.390;9.754;2023-02-22T08:32:30;11.30;99.90
30534;DHT22;17318;52.390;9.754;2023-02-22T08:34:55;11.40;99.90
30534;DHT22;17318;52.390;9.754;2023-02-22T08:37:21;11.40;99.90
30534;DHT22;17318;52.390;9.754;2023-02-22T08:39:47;11.40;99.90
30534;DHT22;17318;52.390;9.754;2023-02-22T08:42:13;11.50;99.90
30534;DHT22;17318;52.390;9.754;2023-02-22T08:44:39;11.60;99.90
30534;DHT22;17318;52.390;9.754;2023-02-22T08:47:05;11.70;99.90
30534;DHT22;17318;52.390;9.754;2023-02-22T08:49:31;11.80;99.90
30534;DHT22;17318;52.390;9.754;2023-02-22T08:51:57;11.80;99.90
30534;DHT22;17318;52.390;9.754;2023-02-22T08:54:23;11.80;99.90
30534;DHT22;17318;52.390;9.754;2023-02-22T08:56:49;11.70;99.90
30534;DHT22;17318;52.390;9.754;2023-02-22T08:59:15;12.00;99.90
30534;DHT22;17318;52.390;9.754;2023-02-22T09:01:41;11.90;99.90
30534;DHT22;17318;52.390;9.754;2023-02-22T09:04:07;12.00;99.90
30534;DHT22;17318;52.390;9.754;2023-02-22T09:06:33;12.10;99.90
30534;DHT22;17318;52.390;9.754;2023-02-22T09:08:58;12.30;99.90
30534;DHT22;17318;52.390;9.754;2023-02-22T09:11:24;12.20;99.90
30534;DHT22;17318;52.390;9.754;2023-02-22T09:13:50;12.30;99.90
30534;DHT22;17318;52.390;9.754;2023-02-22T09:16:15;12.30;99.90
30534;DHT22;17318;52.390;9.754;2023-02-22T09:18:41;12.30;99.90
30534;DHT22;17318;52.390;9.754;2023-02-22T09:21:07;12.30;99.90
30534;DHT22;17318;52.390;9.754;2023-02-22T09:23:32;12.30;99.90
30534;DHT22;17318;52.390;9.754;2023-02-22T09:25:59;12.30;99.90
30534;DHT22;17318;52.390;9.754;2023-02-22T09:28:26;12.40;99.90
30534;DHT22;17318;52.390;9.754;2023-02-22T09:30:52;12.40;99.90
30534;DHT22;17318;52.390;9.754;2023-02-22T09:33:19;12.40;99.90
30534;DHT22;17318;52.390;9.754;2023-02-22T09:35:47;12.50;99.90
30534;DHT22;17318;52.390;9.754;2023-02-22T09:38:20;12.50;99.90
30534;DHT22;17318;52.390;9.754;2023-02-22T09:41:00;12.60;99.90
30534;DHT22;17318;52.390;9.754;2023-02-22T09:46:29;12.90;99.90
30534;DHT22;17318;52.390;9.754;2023-02-22T09:49:19;13.10;99.90
30534;DHT22;17318;52.390;9.754;2023-02-22T09:52:06;13.20;99.90
30534;DHT22;17318;52.390;9.754;2023-02-22T09:54:38;13.30;99.90
30534;DHT22;17318;52.390;9.754;2023-02-22T09:57:10;13.50;99.90
30534;DHT22;17318;52.390;9.754;2023-02-22T09:59:41;13.50;99.90
30534;DHT22;17318;52.390;9.754;2023-02-22T10:04:54;13.80;99.90
30534;DHT22;17318;52.390;9.754;2023-02-22T10:07:29;13.80;99.90
30534;DHT22;17318;52.390;9.754;2023-02-22T10:09:56;13.90;99.90
30534;DHT22;17318;52.390;9.754;2023-02-22T10:12:28;14.00;99.90
30534;DHT22;17318;52.390;9.754;2023-02-22T10:15:30;14.10;99.90
30534;DHT22;17318;52.390;9.754;2023-02-22T10:20:52;14.40;99.90
30534;DHT22;17318;52.390;9.754;2023-02-22T10:23:34;14.40;99.90
30534;DHT22;17318;52.390;9.754;2023-02-22T10:26:23;14.80;99.90
30534;DHT22;17318;52.390;9.754;2023-02-22T10:29:03;15.10;99.90
30534;DHT22;17318;52.390;9.754;2023-02-22T10:31:37;15.30;99.90
30534;DHT22;17318;52.390;9.754;2023-02-22T10:34:20;15.70;99.90
30534;DHT22;17318;52.390;9.754;2023-02-22T10:36:52;15.80;99.10
30534;DHT22;17318;52.390;9.754;2023-02-22T10:39:37;15.90;98.70
30534;DHT22;17318;52.390;9.754;2023-02-22T10:42:05;16.00;98.90
30534;DHT22;17318;52.390;9.754;2023-02-22T10:44:36;16.40;98.10
30534;DHT22;17318;52.390;9.754;2023-02-22T10:47:08;16.40;97.90
30534;DHT22;17318;52.390;9.754;2023-02-22T10:49:51;16.80;97.60
30534;DHT22;17318;52.390;9.754;2023-02-22T10:52:33;17.20;97.50
30534;DHT22;17318;52.390;9.754;2023-02-22T10:55:00;17.40;97.20
30534;DHT22;17318;52.390;9.754;2023-02-22T10:57:34;17.60;96.60
30534;DHT22;17318;52.390;9.754;2023-02-22T11:02:56;18.00;95.70
30534;DHT22;17318;52.390;9.754;2023-02-22T11:05:33;17.80;95.40
30534;DHT22;17318;52.390;9.754;2023-02-22T11:08:27;17.80;95.40
30534;DHT22;17318;52.390;9.754;2023-02-22T11:10:56;18.20;95.40
30534;DHT22;17318;52.390;9.754;2023-02-22T11:13:29;18.00;94.90
30534;DHT22;17318;52.390;9.754;2023-02-22T11:16:25;17.70;94.90
30534;DHT22;17318;52.390;9.754;2023-02-22T11:18:47;17.50;95.00
30534;DHT22;17318;52.390;9.754;2023-02-22T11:21:20;17.40;95.30
30534;DHT22;17318;52.390;9.754;2023-02-22T11:23:47;17.30;95.70
30534;DHT22;17318;52.390;9.754;2023-02-22T11:26:17;17.30;95.70
30534;DHT22;17318;52.390;9.754;2023-02-22T11:28:49;17.40;96.10
30534;DHT22;17318;52.390;9.754;2023-02-22T11:31:27;17.60;95.80
30534;DHT22;17318;52.390;9.754;2023-02-22T11:33:59;17.80;95.30
30534;DHT22;17318;52.390;9.754;2023-02-22T11:36:37;17.90;95.70
30534;DHT22;17318;52.390;9.754;2023-02-22T11:39:26;18.00;95.60
30534;DHT22;17318;52.390;9.754;2023-02-22T11:41:54;18.10;95.10
30534;DHT22;17318;52.390;9.754;2023-02-22T11:44:29;17.90;95.00
30534;DHT22;17318;52.390;9.754;2023-02-22T11:46:57;17.90;95.20
30534;DHT22;17318;52.390;9.754;2023-02-22T11:49:36;17.70;95.10
30534;DHT22;17318;52.390;9.754;2023-02-22T11:55:17;17.30;95.70
30534;DHT22;17318;52.390;9.754;2023-02-22T12:01:15;17.00;95.90
30534;DHT22;17318;52.390;9.754;2023-02-22T12:13:54;17.10;96.20
30534;DHT22;17318;52.390;9.754;2023-02-22T12:16:31;17.10;96.00
30534;DHT22;17318;52.390;9.754;2023-02-22T12:19:18;17.00;95.90
30534;DHT22;17318;52.390;9.754;2023-02-22T12:21:55;17.00;96.00
30534;DHT22;17318;52.390;9.754;2023-02-22T12:24:26;17.00;96.10
30534;DHT22;17318;52.390;9.754;2023-02-22T12:26:58;16.90;96.20
30534;DHT22;17318;52.390;9.754;2023-02-22T12:29:39;16.90;96.20
30534;DHT22;17318;52.390;9.754;2023-02-22T12:32:27;16.90;96.10
30534;DHT22;17318;52.390;9.754;2023-02-22T12:35:02;16.80;96.20
30534;DHT22;17318;52.390;9.754;2023-02-22T12:42:56;16.60;96.20
30534;DHT22;17318;52.390;9.754;2023-02-22T12:45:35;16.40;96.50
30534;DHT22;17318;52.390;9.754;2023-02-22T12:51:24;16.50;96.70
30534;DHT22;17318;52.390;9.754;2023-02-22T12:54:01;16.40;96.60
30534;DHT22;17318;52.390;9.754;2023-02-22T12:56:50;16.50;96.70
30534;DHT22;17318;52.390;9.754;2023-02-22T12:59:34;16.50;96.50
30534;DHT22;17318;52.390;9.754;2023-02-22T13:02:13;16.50;96.60
30534;DHT22;17318;52.390;9.754;2023-02-22T13:04:40;16.30;96.50
30534;DHT22;17318;52.390;9.754;2023-02-22T13:12:31;16.40;96.70
30534;DHT22;17318;52.390;9.754;2023-02-22T13:23:09;16.30;96.80
30534;DHT22;17318;52.390;9.754;2023-02-22T13:30:53;16.20;96.70
30534;DHT22;17318;52.390;9.754;2023-02-22T13:36:36;16.30;96.90
30534;DHT22;17318;52.390;9.754;2023-02-22T13:42:21;16.20;96.80
30534;DHT22;17318;52.390;9.754;2023-02-22T13:53:11;16.30;97.60
30534;DHT22;17318;52.390;9.754;2023-02-22T13:55:40;16.30;97.60
30534;DHT22;17318;52.390;9.754;2023-02-22T13:58:10;16.20;97.80
30534;DHT22;17318;52.390;9.754;2023-02-22T14:00:43;16.20;97.80
30534;DHT22;17318;52.390;9.754;2023-02-22T14:10:57;16.20;98.00
30534;DHT22;17318;52.390;9.754;2023-02-22T14:13:25;16.10;98.20
30534;DHT22;17318;52.390;9.754;2023-02-22T14:18:35;16.00;98.20
30534;DHT22;17318;52.390;9.754;2023-02-22T14:23:42;16.00;98.50
30534;DHT22;17318;52.390;9.754;2023-02-22T14:26:20;16.10;98.50
30534;DHT22;17318;52.390;9.754;2023-02-22T14:28:57;16.10;98.50
30534;DHT22;17318;52.390;9.754;2023-02-22T14:31:31;16.00;98.40
30534;DHT22;17318;52.390;9.754;2023-02-22T14:34:07;16.00;98.50
30534;DHT22;17318;52.390;9.754;2023-02-22T14:39:21;16.10;98.30
30534;DHT22;17318;52.390;9.754;2023-02-22T14:41:56;16.00;98.50
30534;DHT22;17318;52.390;9.754;2023-02-22T14:44:32;16.00;98.60
30534;DHT22;17318;52.390;9.754;2023-02-22T14:47:03;16.00;98.70
30534;DHT22;17318;52.390;9.754;2023-02-22T14:49:34;16.00;98.60
30534;DHT22;17318;52.390;9.754;2023-02-22T14:52:05;16.00;98.60
30534;DHT22;17318;52.390;9.754;2023-02-22T14:54:35;16.00;98.50
30534;DHT22;17318;52.390;9.754;2023-02-22T14:57:13;16.00;98.60
30534;DHT22;17318;52.390;9.754;2023-02-22T14:59:51;15.90;98.30
30534;DHT22;17318;52.390;9.754;2023-02-22T15:02:21;16.00;98.30
30534;DHT22;17318;52.390;9.754;2023-02-22T15:04:52;16.00;98.30
30534;DHT22;17318;52.390;9.754;2023-02-22T15:07:26;16.00;98.20
30534;DHT22;17318;52.390;9.754;2023-02-22T15:12:50;16.00;98.30
30534;DHT22;17318;52.390;9.754;2023-02-22T15:15:19;15.90;98.20
30534;DHT22;17318;52.390;9.754;2023-02-22T15:17:53;15.90;98.40
30534;DHT22;17318;52.390;9.754;2023-02-22T15:20:20;15.90;98.50
30534;DHT22;17318;52.390;9.754;2023-02-22T15:22:47;15.90;98.60
30534;DHT22;17318;52.390;9.754;2023-02-22T15:25:13;16.00;98.80
30534;DHT22;17318;52.390;9.754;2023-02-22T15:27:43;15.90;98.70
30534;DHT22;17318;52.390;9.754;2023-02-22T15:30:26;15.90;98.80
30534;DHT22;17318;52.390;9.754;2023-02-22T15:32:52;15.90;98.80
30534;DHT22;17318;52.390;9.754;2023-02-22T15:35:28;15.90;98.70
30534;DHT22;17318;52.390;9.754;2023-02-22T15:40:33;15.90;98.80
30534;DHT22;17318;52.390;9.754;2023-02-22T15:43:02;15.90;98.80
30534;DHT22;17318;52.390;9.754;2023-02-22T15:45:29;15.80;98.90
30534;DHT22;17318;52.390;9.754;2023-02-22T15:47:57;15.80;98.90
30534;DHT22;17318;52.390;9.754;2023-02-22T15:53:06;15.80;99.00
30534;DHT22;17318;52.390;9.754;2023-02-22T15:55:35;15.70;98.90
30534;DHT22;17318;52.390;9.754;2023-02-22T16:00:37;15.60;99.10
30534;DHT22;17318;52.390;9.754;2023-02-22T16:03:13;15.60;99.20
30534;DHT22;17318;52.390;9.754;2023-02-22T16:05:49;15.60;99.30
30534;DHT22;17318;52.390;9.754;2023-02-22T16:08:25;15.60;99.30
30534;DHT22;17318;52.390;9.754;2023-02-22T16:11:13;15.50;99.30
30534;DHT22;17318;52.390;9.754;2023-02-22T16:13:41;15.50;99.40
30534;DHT22;17318;52.390;9.754;2023-02-22T16:18:50;15.40;99.50
30534;DHT22;17318;52.390;9.754;2023-02-22T16:21:19;15.40;99.60
30534;DHT22;17318;52.390;9.754;2023-02-22T16:23:53;15.40;99.70
30534;DHT22;17318;52.390;9.754;2023-02-22T16:29:03;15.20;99.90
30534;DHT22;17318;52.390;9.754;2023-02-22T16:31:37;15.20;99.90
30534;DHT22;17318;52.390;9.754;2023-02-22T16:34:06;15.20;99.90
30534;DHT22;17318;52.390;9.754;2023-02-22T16:36:50;15.20;99.90
30534;DHT22;17318;52.390;9.754;2023-02-22T16:39:29;15.10;99.90
30534;DHT22;17318;52.390;9.754;2023-02-22T16:41:57;15.10;99.90
30534;DHT22;17318;52.390;9.754;2023-02-22T16:44:23;15.00;99.90
30534;DHT22;17318;52.390;9.754;2023-02-22T16:46:54;14.90;99.90
30534;DHT22;17318;52.390;9.754;2023-02-22T16:49:20;14.80;99.90
30534;DHT22;17318;52.390;9.754;2023-02-22T16:51:53;14.80;99.90
30534;DHT22;17318;52.390;9.754;2023-02-22T16:54:26;14.80;99.90
30534;DHT22;17318;52.390;9.754;2023-02-22T16:56:55;14.90;99.90
30534;DHT22;17318;52.390;9.754;2023-02-22T16:59:21;14.70;99.90
30534;DHT22;17318;52.390;9.754;2023-02-22T17:01:47;14.70;99.90
30534;DHT22;17318;52.390;9.754;2023-02-22T17:04:15;14.60;99.90
30534;DHT22;17318;52.390;9.754;2023-02-22T17:06:43;14.60;99.90
30534;DHT22;17318;52.390;9.754;2023-02-22T17:09:09;14.50;99.90
30534;DHT22;17318;52.390;9.754;2023-02-22T17:11:35;14.40;99.90
30534;DHT22;17318;52.390;9.754;2023-02-22T17:14:01;14.30;99.90
30534;DHT22;17318;52.390;9.754;2023-02-22T17:16:27;14.40;99.90
30534;DHT22;17318;52.390;9.754;2023-02-22T17:18:53;14.40;99.90
30534;DHT22;17318;52.390;9.754;2023-02-22T17:21:18;14.30;99.90
30534;DHT22;17318;52.390;9.754;2023-02-22T17:23:44;14.30;99.90
30534;DHT22;17318;52.390;9.754;2023-02-22T17:26:12;14.10;99.90
30534;DHT22;17318;52.390;9.754;2023-02-22T17:28:39;14.20;99.90
30534;DHT22;17318;52.390;9.754;2023-02-22T17:31:05;14.00;99.90
30534;DHT22;17318;52.390;9.754;2023-02-22T17:33:33;14.10;99.90
30534;DHT22;17318;52.390;9.754;2023-02-22T17:36:02;14.00;99.90
30534;DHT22;17318;52.390;9.754;2023-02-22T17:38:29;13.90;99.90
30534;DHT22;17318;52.390;9.754;2023-02-22T17:40:57;13.80;99.90
30534;DHT22;17318;52.390;9.754;2023-02-22T17:43:24;13.80;99.90
30534;DHT22;17318;52.390;9.754;2023-02-22T17:45:52;13.90;99.90
30534;DHT22;17318;52.390;9.754;2023-02-22T17:48:18;13.90;99.90
30534;DHT22;17318;52.390;9.754;2023-02-22T17:50:45;13.90;99.90
30534;DHT22;17318;52.390;9.754;2023-02-22T17:53:11;13.80;99.90
30534;DHT22;17318;52.390;9.754;2023-02-22T17:55:39;13.80;99.90
30534;DHT22;17318;52.390;9.754;2023-02-22T17:58:08;13.70;99.90
30534;DHT22;17318;52.390;9.754;2023-02-22T18:00:40;13.70;99.90